METAR Reports From Nearby Airports

 

KLUD - Decatur, Texas, USA
Distance from Wildwood: ESE 5mi, 8km
Updated: Feb 22, 2018 10:15am
Overcast
Overcast
 Wind from calm
Wind: Calm
Temperature: 32°F , 0°C
Dew Point: 32°F , 0°C
Humidity: 100%
Barometer: 30.26 inHg , 1024.7 hPa
Clouds: Overcast
Visibility: 2 miles , 3 km
Cloud details: Overcast 300 ft
2018/02/22 16:15 KLUD 221615Z AUTO 00000KT 2SM UP OVC003 00/00 A3026 RMK AO2 VIS 1 1/4V3 T00001004
KXBP - Bridgeport, Texas, USA
Distance from Wildwood: WSW 11mi, 18km
Updated: Feb 22, 2018 10:35am
Light drizzle, Overcast
Light drizzle, Overcast
 Wind from calm
Wind: Calm
Temperature: 32°F , 0°C
Dew Point: 32°F , 0°C
Humidity: 100%
Barometer: 30.32 inHg , 1026.8 hPa
Summary: Light Drizzle
Clouds: Overcast
Visibility: 5 miles , 8 km
Cloud details: Overcast 400 ft
2018/02/22 16:35 KXBP 221635Z AUTO 00000KT 5SM -DZ OVC004 00/00 A3032 RMK AO2 LTG DSNT NE AND E P0002 T00000000
 
K0F2 - Bowie, Texas, USA
Distance from Wildwood: NNW 24mi, 39km
Updated: Feb 22, 2018 10:15am
Overcast
Overcast
 Wind from calm
Wind: Calm
Temperature: 32°F , 0°C
Dew Point: 30°F , -1°C
Humidity: 93%
Barometer: 30.30 inHg , 1026.1 hPa
Clouds: Overcast
Visibility: 7 miles , 11 km
Cloud details: Overcast 300 ft
2018/02/22 16:15 K0F2 221615Z AUTO 00000KT 7SM OVC003 00/M01 A3030 RMK AO2 T10051008
KDTO - Denton, Texas, USA
Distance from Wildwood: E 27mi, 44km
Updated: Feb 22, 2018 10:34am
Thunderstorm rain, Mist, Overcast
Thunderstorm rain, Mist, Overcast
 Wind from WNW
Wind: WNW 7 mph , 11 km/h
Temperature: 34°F , 1°C
Wind Chill: 28°F , -2°C
Dew Point: 34°F , 1°C
Humidity: 100%
Barometer: 30.27 inHg , 1025.1 hPa
Summary: Thunderstorm rain, Mist
Clouds: Overcast
Visibility: 3 miles , 5 km
Cloud details: Overcast 400 ft
2018/02/22 16:34 KDTO 221634Z 29006KT 3SM TSRA BR OVC004 01/01 A3027 RMK AO2 LTG DSNT ALQDS TSB10E25B28 P0005 T00110011
 
KAFW - Ft Worth/Allianc, Texas, USA
Distance from Wildwood: SE 29mi, 46km
Updated: Feb 22, 2018 10:32am
Rain, Mist, Overcast
Rain, Mist, Overcast
 Wind from NW
Wind: NW 5 mph , 7 km/h
Temperature: 34°F , 1°C
Wind Chill: 29°F , -2°C
Dew Point: 34°F , 1°C
Humidity: 100%
Barometer: 30.27 inHg , 1025.1 hPa
Summary: Rain, Mist
Clouds: Overcast
Visibility: 1 3/4 miles , 5 km
Cloud details: Mostly Cloudy 600 ft
Mostly Cloudy 1700 ft
Overcast 3800 ft
2018/02/22 16:32 KAFW 221632Z 32004KT 1 3/4SM RA BR BKN006 BKN017 OVC038 01/01 A3027 RMK AO2 VIS 1 1/4V2 1/2 LTG DSNT NE AND E LTG DSNT N-E TS MOVD NE CB DSNT N-E P0012 T00110011 $
KFTW - Fort Worth, Texas, USA
Distance from Wildwood: SSE 34mi, 55km
Updated: Feb 22, 2018 10:27am
Light rain, Mist, Overcast
Light rain, Mist, Overcast
 Wind from WNW
Wind: WNW 8 mph , 13 km/h
Temperature: 36°F , 2°C
Wind Chill: 30°F , -1°C
Dew Point: 34°F , 1°C
Humidity: 93%
Barometer: 30.28 inHg , 1025.4 hPa
Summary: Light rain, Mist
Clouds: Overcast
Visibility: 2 1/2 miles , 2 km
Cloud details: Overcast 300 ft
2018/02/22 16:27 KFTW 221627Z 30007KT 2 1/2SM R16/5500VP6000FT -RA BR OVC003 02/01 A3028 RMK AO2 LTG DSNT N-E TSE14 P0036 T00220011
 
KNFW - Fort Worth Nas, Texas, USA
Distance from Wildwood: SSE 36mi, 58km
Updated: Feb 22, 2018 10:20am
Light rain, Mist, Overcast
Light rain, Mist, Overcast
 Wind from NW
Wind: NW 8 mph , 13 km/h
Temperature: 36°F , 2°C
Wind Chill: 30°F , -1°C
Dew Point: 34°F , 1°C
Humidity: 93%
Barometer: 30.29 inHg , 1025.7 hPa
Summary: Light rain, Mist
Clouds: Overcast
Visibility: 3 miles , 5 km
Cloud details: Mostly Cloudy 500 ft
Overcast 2000 ft
2018/02/22 16:20 KNFW 221620Z 31007KT 3SM -RA BR BKN005CB OVC020 02/01 A3029 RMK AO2 TSE14 OCNL LTG ICCCCG DSNT NE CB 13 NE MOVG NE P0006 T00220006 $
KGLE - Gainesville, Texas, USA
Distance from Wildwood: NE 38mi, 61km
Updated: Feb 22, 2018 10:15am
Mist, Overcast
Mist, Overcast
 Wind from calm
Wind: Calm
Temperature: 32°F , 0°C
Dew Point: 32°F , 0°C
Humidity: 100%
Barometer: 30.30 inHg , 1026.1 hPa
Summary: Mist
Clouds: Overcast
Visibility: 5 miles , 8 km
Cloud details: Overcast 300 ft
2018/02/22 16:15 KGLE 221615Z AUTO 00000KT 5SM BR OVC003 00/00 A3030 RMK AO2 T00011001
 
KMWL - Mineral Wells, Texas, USA
Distance from Wildwood: SW 41mi, 65km
Updated: Feb 22, 2018 10:10am
Mist, Overcast
Mist, Overcast
 Wind from NW
Wind: NW 9 mph , 15 km/h
Temperature: 30°F , -1°C
Wind Chill: 22°F , -6°C
Dew Point: 28°F , -2°C
Humidity: 93%
Barometer: 30.28 inHg , 1025.4 hPa
Summary: Mist
Clouds: Overcast
Visibility: 3 miles , 5 km
Cloud details: Overcast 500 ft
2018/02/22 16:10 KMWL 221610Z AUTO 31008KT 3SM UP BR OVC005 M01/M02 A3028 RMK AO2 CIG 003V008 P0002 T10061017 $
KDFW - Dallas/Ft Worth, Texas, USA
Distance from Wildwood: ESE 45mi, 73km
Updated: Feb 22, 2018 10:21am
Light thunderstorm, Rain, Mist, Overcast
Light thunderstorm, Rain, Mist, Overcast
 Wind from N
Wind: N 6 mph , 9 km/h
Temperature: 37°F , 3°C
Wind Chill: 32°F , 0°C
Dew Point: 36°F , 2°C
Humidity: 93%
Barometer: 30.25 inHg , 1024.4 hPa
Summary: Light thunderstorm, Rain, Mist
Clouds: Overcast
Visibility: 1/2 mile , 2 km
Cloud details: Mostly Cloudy 500 ft
Overcast 3000 ft
2018/02/22 16:21 KDFW 221621Z 35005KT 1/2SM R17C/4000VP6000FT -TSRA BR BKN005CB OVC030 03/02 A3025 RMK AO2 SFC VIS 1 1/2 LTG DSNT E AND SE AND NW OCNL LTGIC E W-NW TS E W-NW MOV NE P0002 T00330022 $